Time;durP1;ratioP1;P1;durP2;ratioP2;P2;SDS_P1;SDS_P2;PMS_P1;PMS_P2;Temp;Humidity;BMP_temperature;BMP_pressure;BME280_temperature;BME280_humidity;BME280_pressure;Samples;Min_cycle;Max_cycle;Signal;HPM_P1;HPM_P2
2022/03/31 00:00:45;;;;;;;15.70;8.07;;;;;;;14.63;58.50;98173.47;4484659;32;33519;-76
2022/03/31 00:03:18;;;;;;;19.33;8.93;;;;;;;14.47;59.03;98172.59;4484119;32;34472;-75
2022/03/31 00:05:46;;;;;;;20.85;8.45;;;;;;;14.58;58.73;98174.28;4484608;32;34469;-76
2022/03/31 00:08:16;;;;;;;15.38;8.20;;;;;;;14.66;58.40;98170.19;4471738;32;32778;-76
2022/03/31 00:10:52;;;;;;;16.30;8.38;;;;;;;14.56;58.67;98157.19;4471588;32;31823;-76
2022/03/31 00:13:22;;;;;;;16.35;8.70;;;;;;;14.39;59.23;98165.66;4485962;32;34472;-76
2022/03/31 00:15:50;;;;;;;18.98;8.70;;;;;;;14.45;59.02;98169.28;4484587;32;33766;-75
2022/03/31 00:18:17;;;;;;;15.38;8.50;;;;;;;14.26;59.49;98170.88;4484760;32;33985;-76
2022/03/31 00:20:46;;;;;;;17.75;7.93;;;;;;;14.35;59.02;98174.75;4485956;32;33891;-76
2022/03/31 00:23:13;;;;;;;18.45;7.87;;;;;;;14.23;59.40;98169.47;4484460;32;34933;-75
2022/03/31 00:25:41;;;;;;;20.37;8.85;;;;;;;14.34;58.76;98167.56;4484371;32;32561;-75
2022/03/31 00:28:09;;;;;;;14.93;8.13;;;;;;;14.33;58.81;98168.66;4471357;32;31817;-75
2022/03/31 00:30:37;;;;;;;16.75;9.23;;;;;;;14.45;58.43;98156.31;4471370;32;34567;-76
2022/03/31 00:33:07;;;;;;;17.20;8.13;;;;;;;14.46;58.38;98151.63;4485393;32;34377;-75
2022/03/31 00:35:34;;;;;;;23.17;9.48;;;;;;;14.29;58.72;98151.84;4485537;32;34707;-75
2022/03/31 00:38:02;;;;;;;14.90;7.97;;;;;;;14.31;58.60;98140.50;4484397;32;33920;-76
2022/03/31 00:40:30;;;;;;;22.30;8.15;;;;;;;14.38;58.32;98146.59;4471413;32;32061;-76
2022/03/31 00:42:59;;;;;;;18.85;8.82;;;;;;;14.27;58.12;98145.75;4471345;32;34048;-76
2022/03/31 00:45:29;;;;;;;19.58;9.55;;;;;;;14.17;58.31;98151.25;4471170;32;34007;-75
2022/03/31 00:47:56;;;;;;;17.87;9.18;;;;;;;14.49;57.48;98148.31;4485395;32;34043;-76
2022/03/31 00:50:26;;;;;;;19.42;11.02;;;;;;;14.45;57.47;98141.69;4484385;32;33781;-76
2022/03/31 00:52:54;;;;;;;22.10;11.30;;;;;;;14.50;56.71;98155.50;4485346;32;35110;-76
2022/03/31 00:55:44;;;;;;;27.27;11.82;;;;;;;14.33;56.80;98138.31;4473569;32;33860;-76
2022/03/31 00:58:13;;;;;;;25.55;11.80;;;;;;;14.49;56.23;98132.59;4483936;32;33298;-76
2022/03/31 01:00:40;;;;;;;24.92;11.48;;;;;;;14.41;56.49;98123.97;4471078;32;33754;-75
2022/03/31 01:03:08;;;;;;;23.77;12.27;;;;;;;14.34;56.89;98121.47;4484056;32;34587;-76
2022/03/31 01:05:38;;;;;;;22.55;11.25;;;;;;;14.45;56.69;98122.38;4471071;32;34024;-76
2022/03/31 01:08:05;;;;;;;23.85;11.85;;;;;;;14.49;56.44;98124.31;4471237;32;33354;-76
2022/03/31 01:10:34;;;;;;;20.23;11.40;;;;;;;14.37;56.76;98115.41;4485100;32;33840;-75
2022/03/31 01:13:06;;;;;;;21.92;12.57;;;;;;;14.56;56.29;98113.00;4470908;32;32937;-76
2022/03/31 01:15:35;;;;;;;30.35;14.65;;;;;;;14.49;56.38;98110.50;4472795;32;34151;-75
2022/03/31 01:18:03;;;;;;;21.23;12.25;;;;;;;14.28;56.87;98107.97;4485817;32;33460;-76
2022/03/31 01:20:33;;;;;;;24.42;13.13;;;;;;;14.40;56.65;98103.00;4472925;32;33781;-76
2022/03/31 01:23:01;;;;;;;23.10;11.88;;;;;;;14.25;57.43;98108.50;4473380;32;35210;-76
2022/03/31 01:25:28;;;;;;;26.87;16.62;;;;;;;14.40;56.95;98103.00;4485737;32;33554;-76
2022/03/31 01:27:57;;;;;;;28.42;16.42;;;;;;;14.43;57.00;98105.25;4472822;32;32851;-76
2022/03/31 01:30:24;;;;;;;35.75;22.37;;;;;;;14.47;56.93;98106.34;4485794;32;32306;-76
2022/03/31 01:32:54;;;;;;;33.75;18.75;;;;;;;14.44;56.97;98101.38;4484968;32;34770;-76
2022/03/31 01:35:23;;;;;;;25.58;15.93;;;;;;;14.41;56.89;98105.50;4485234;32;33639;-76
2022/03/31 01:37:53;;;;;;;23.85;10.82;;;;;;;14.49;56.38;98098.62;4472899;32;32797;-76
2022/03/31 01:40:21;;;;;;;20.55;10.68;;;;;;;14.46;56.36;98088.97;4485406;32;33839;-76
2022/03/31 01:42:48;;;;;;;21.77;10.52;;;;;;;14.54;56.17;98082.06;4472567;32;32901;-76
2022/03/31 01:45:18;;;;;;;17.52;9.00;;;;;;;14.52;56.31;98080.69;4485799;32;33931;-76
2022/03/31 01:47:46;;;;;;;20.92;9.70;;;;;;;14.40;56.79;98087.25;4485591;32;33916;-76
2022/03/31 01:50:16;;;;;;;18.08;9.48;;;;;;;14.44;56.82;98091.16;4472492;32;33741;-76
2022/03/31 01:52:44;;;;;;;23.02;10.25;;;;;;;14.52;56.69;98089.81;4485385;32;35216;-76
2022/03/31 01:55:12;;;;;;;21.20;10.18;;;;;;;14.29;57.47;98082.84;4472867;32;34597;-76
2022/03/31 01:57:39;;;;;;;21.10;10.40;;;;;;;14.27;57.34;98086.97;4486841;32;34097;-76
2022/03/31 02:00:09;;;;;;;20.00;10.38;;;;;;;14.43;56.68;98080.41;4472645;32;32194;-76
2022/03/31 02:02:40;;;;;;;20.00;10.23;;;;;;;14.36;56.41;98079.81;4486738;32;35484;-76
2022/03/31 02:05:08;;;;;;;21.08;10.38;;;;;;;14.27;56.50;98073.19;4472574;32;32408;-76
2022/03/31 02:07:38;;;;;;;19.87;9.50;;;;;;;14.40;55.93;98075.41;4485403;32;33227;-76
2022/03/31 02:10:12;;;;;;;23.10;10.48;;;;;;;14.39;56.05;98066.28;4459999;32;32305;-76
2022/03/31 02:12:40;;;;;;;21.85;10.27;;;;;;;14.36;56.36;98064.06;4485516;32;34410;-76
2022/03/31 02:15:11;;;;;;;22.08;11.10;;;;;;;14.40;55.88;98061.59;4485347;32;33869;-76
2022/03/31 02:17:39;;;;;;;22.15;10.10;;;;;;;14.46;55.49;98050.31;4485186;32;34186;-76
2022/03/31 02:20:08;;;;;;;18.23;10.25;;;;;;;14.24;56.07;98065.44;4472531;32;33894;-76
2022/03/31 02:22:36;;;;;;;19.23;10.13;;;;;;;14.33;55.82;98053.56;4485367;32;33090;-76
2022/03/31 02:25:05;;;;;;;19.55;10.35;;;;;;;14.27;55.98;98060.22;4486400;32;34571;-76
2022/03/31 02:27:32;;;;;;;21.85;10.77;;;;;;;14.21;56.07;98055.78;4485172;32;33073;-76
2022/03/31 02:30:00;;;;;;;16.60;10.57;;;;;;;14.15;56.25;98054.94;4485492;32;34414;-76
2022/03/31 02:32:27;;;;;;;17.92;9.77;;;;;;;14.17;56.22;98065.72;4485564;32;34208;-76
2022/03/31 02:34:57;;;;;;;21.50;10.55;;;;;;;14.23;56.03;98066.56;4485180;32;33827;-76
2022/03/31 02:37:25;;;;;;;20.48;10.20;;;;;;;14.11;56.39;98058.53;4485235;32;33335;-76
2022/03/31 02:39:53;;;;;;;19.40;10.07;;;;;;;14.20;56.16;98069.84;4485332;32;33671;-76
2022/03/31 02:42:20;;;;;;;20.23;10.65;;;;;;;14.26;55.96;98058.56;4472219;32;33843;-76
2022/03/31 02:44:48;;;;;;;20.92;11.10;;;;;;;14.25;56.07;98056.06;4459549;32;32178;-76
2022/03/31 02:47:16;;;;;;;21.70;10.55;;;;;;;14.22;56.13;98053.84;4485461;32;33186;-76
2022/03/31 02:49:46;;;;;;;21.73;10.15;;;;;;;14.33;55.80;98045.28;4485059;32;32163;-76
2022/03/31 02:52:13;;;;;;;20.23;11.18;;;;;;;14.45;55.44;98047.84;4486222;32;35270;-76
2022/03/31 02:57:27;;;;;;;22.75;10.02;;;;;;;14.13;56.61;98046.12;4474190;32;31999;-75
2022/03/31 02:59:55;;;;;;;19.15;10.10;;;;;;;14.13;56.56;98034.25;4485081;32;33450;-75
2022/03/31 03:02:22;;;;;;;18.52;9.77;;;;;;;14.14;56.52;98033.97;4485040;32;32897;-75
2022/03/31 03:04:50;;;;;;;18.92;10.55;;;;;;;14.05;56.79;98026.50;4472225;32;32276;-76
2022/03/31 03:07:18;;;;;;;17.52;10.18;;;;;;;14.05;56.83;98032.84;4485176;32;33284;-76
2022/03/31 03:09:45;;;;;;;22.95;10.57;;;;;;;14.06;56.83;98033.69;4485798;32;34557;-76
2022/03/31 03:12:13;;;;;;;18.30;10.35;;;;;;;13.94;57.25;98035.84;4472104;32;33085;-75
2022/03/31 03:14:41;;;;;;;16.27;10.07;;;;;;;14.03;57.00;98032.28;4484811;32;33602;-76
2022/03/31 03:17:08;;;;;;;18.27;10.32;;;;;;;14.13;56.64;98037.00;4484902;32;33334;-76
2022/03/31 03:19:36;;;;;;;18.67;10.45;;;;;;;14.12;56.57;98025.13;4484964;32;32273;-75
2022/03/31 03:22:04;;;;;;;17.80;10.07;;;;;;;14.08;56.69;98024.03;4485026;32;35289;-75
2022/03/31 03:24:31;;;;;;;19.02;10.10;;;;;;;14.00;56.86;98021.78;4484854;32;33983;-75
2022/03/31 03:26:59;;;;;;;20.73;10.50;;;;;;;13.92;57.00;98007.72;4485059;32;33825;-76
2022/03/31 03:29:26;;;;;;;19.12;10.32;;;;;;;13.93;56.88;98021.22;4484854;32;32132;-76
2022/03/31 03:31:54;;;;;;;18.83;10.30;;;;;;;14.04;56.60;98025.66;4484776;32;35246;-76
2022/03/31 03:34:22;;;;;;;21.08;10.30;;;;;;;14.02;56.59;98019.59;4486158;32;34715;-76
2022/03/31 03:36:49;;;;;;;15.45;9.45;;;;;;;14.11;56.11;98012.44;4483928;32;33208;-76
2022/03/31 03:39:17;;;;;;;22.83;10.00;;;;;;;14.02;56.21;98008.56;4484834;32;32409;-76
2022/03/31 03:41:44;;;;;;;18.05;11.18;;;;;;;13.97;56.32;98002.22;4484662;32;34248;-76
2022/03/31 03:44:12;;;;;;;22.58;10.95;;;;;;;14.13;55.88;98004.72;4472038;32;32392;-76
2022/03/31 03:46:40;;;;;;;18.48;9.50;;;;;;;14.14;55.95;97997.28;4471903;32;33329;-76
2022/03/31 03:49:07;;;;;;;21.60;10.50;;;;;;;14.10;56.12;97997.00;4472054;32;32327;-76
2022/03/31 03:51:35;;;;;;;14.02;8.75;;;;;;;14.15;55.92;97991.50;4484661;32;34516;-76
2022/03/31 03:54:06;;;;;;;17.48;9.98;;;;;;;14.07;56.24;97991.19;4485695;32;34745;-77
2022/03/31 03:56:33;;;;;;;20.48;9.73;;;;;;;14.14;56.09;97992.59;4472300;32;34117;-76
2022/03/31 03:59:01;;;;;;;22.25;9.95;;;;;;;14.16;56.10;97986.81;4484859;32;34591;-76
2022/03/31 04:01:28;;;;;;;17.98;8.10;;;;;;;14.13;56.18;97992.88;4484544;32;35374;-77
2022/03/31 04:03:57;;;;;;;20.25;10.45;;;;;;;14.05;57.94;97985.94;4471772;32;32881;-75
2022/03/31 04:06:24;;;;;;;19.02;9.65;;;;;;;14.17;57.47;97985.69;4485783;32;33282;-75
2022/03/31 04:08:53;;;;;;;20.27;10.32;;;;;;;14.31;56.26;97983.19;4471963;32;32414;-74
2022/03/31 04:11:20;;;;;;;17.27;10.60;;;;;;;14.29;55.89;97977.16;4484540;32;34403;-74
2022/03/31 04:13:49;;;;;;;20.27;9.95;;;;;;;14.12;56.34;97977.41;4484566;32;34693;-74
2022/03/31 04:16:16;;;;;;;19.27;11.23;;;;;;;14.20;56.00;97984.31;4485395;32;34010;-74
2022/03/31 04:18:44;;;;;;;16.08;9.35;;;;;;;14.12;56.11;97977.41;4485261;32;34428;-76
2022/03/31 04:21:14;;;;;;;16.00;10.27;;;;;;;14.26;55.71;97974.94;4471021;32;32926;-74
2022/03/31 04:23:41;;;;;;;18.65;10.60;;;;;;;14.12;56.04;97982.94;4484344;32;34095;-74
2022/03/31 04:26:09;;;;;;;17.20;9.93;;;;;;;14.16;55.94;97984.88;4471412;32;32041;-75
2022/03/31 04:28:37;;;;;;;19.40;9.18;;;;;;;14.21;55.83;97981.28;4484412;32;33903;-75
2022/03/31 04:31:04;;;;;;;15.07;9.23;;;;;;;14.09;56.11;97984.31;4485355;31;34804;-75
2022/03/31 04:33:35;;;;;;;16.27;9.45;;;;;;;14.05;56.26;97980.44;4484889;32;33995;-75
2022/03/31 04:36:03;;;;;;;18.75;10.00;;;;;;;14.10;56.08;97974.09;4484558;32;33315;-75
2022/03/31 04:38:30;;;;;;;21.12;10.60;;;;;;;14.12;56.06;97982.94;4484337;32;33656;-75
2022/03/31 04:41:00;;;;;;;18.17;10.30;;;;;;;14.06;56.22;97982.09;4484536;32;34595;-75
2022/03/31 04:43:28;;;;;;;21.00;10.27;;;;;;;13.96;56.62;97984.81;4484266;32;34119;-75
2022/03/31 04:45:55;;;;;;;18.10;10.52;;;;;;;14.08;56.21;97976.31;4485194;32;33531;-74
2022/03/31 04:48:23;;;;;;;18.70;10.55;;;;;;;13.98;56.61;97970.75;4471081;32;33067;-74
2022/03/31 04:50:51;;;;;;;20.27;10.95;;;;;;;14.09;56.46;97973.28;4489510;31;35282;-75
2022/03/31 04:53:18;;;;;;;18.40;10.38;;;;;;;14.09;56.58;97973.28;4459625;32;34126;-75
2022/03/31 04:55:47;;;;;;;20.35;10.82;;;;;;;14.15;56.56;97969.41;4468289;32;33282;-75
2022/03/31 04:58:14;;;;;;;20.10;11.43;;;;;;;14.16;56.65;97968.31;4467989;32;34341;-75
2022/03/31 05:00:42;;;;;;;20.90;10.50;;;;;;;13.99;57.33;97967.75;4468583;32;34405;-75
2022/03/31 05:03:12;;;;;;;19.55;9.90;;;;;;;14.01;57.57;97971.06;4468737;32;33918;-75
2022/03/31 05:05:40;;;;;;;18.60;10.80;;;;;;;14.04;57.48;97969.69;4455813;32;32769;-75
2022/03/31 05:08:08;;;;;;;20.85;11.18;;;;;;;13.99;58.09;97969.66;4441908;32;32313;-74
2022/03/31 05:10:36;;;;;;;18.40;9.25;;;;;;;14.21;59.54;97964.75;4455522;32;32992;-72
2022/03/31 05:13:06;;;;;;;19.48;10.15;;;;;;;14.31;58.41;97964.72;4455224;32;33413;-74
2022/03/31 05:15:38;;;;;;;18.87;10.38;;;;;;;14.31;58.56;97967.47;4470376;32;33175;-75
2022/03/31 05:18:06;;;;;;;21.02;9.88;;;;;;;14.31;57.49;97963.88;4460675;32;33768;-75
2022/03/31 05:20:34;;;;;;;24.42;10.60;;;;;;;14.10;57.81;97966.66;4468269;32;34488;-75
2022/03/31 05:23:02;;;;;;;19.30;10.45;;;;;;;14.06;57.78;97970.22;4466507;32;34794;-75
2022/03/31 05:25:29;;;;;;;19.55;10.73;;;;;;;14.03;58.12;97968.84;4443752;32;33941;-75
2022/03/31 05:28:01;;;;;;;17.67;10.57;;;;;;;14.15;57.63;97963.91;4451260;32;33692;-75
2022/03/31 05:30:32;;;;;;;19.25;10.48;;;;;;;13.97;58.34;97969.09;4451073;32;34505;-75
2022/03/31 05:33:04;;;;;;;22.20;10.90;;;;;;;13.91;58.75;97960.00;4451000;32;32417;-75
2022/03/31 05:35:31;;;;;;;20.08;11.02;;;;;;;14.12;58.16;97967.22;4451869;32;34078;-75
2022/03/31 05:38:01;;;;;;;17.45;10.48;;;;;;;14.14;58.16;97967.75;4452078;32;34671;-75
2022/03/31 05:40:29;;;;;;;20.27;10.52;;;;;;;14.02;58.81;97966.37;4452508;32;33941;-75
2022/03/31 05:42:57;;;;;;;21.05;11.23;;;;;;;14.10;58.64;97963.06;4439515;32;32356;-75
2022/03/31 05:45:25;;;;;;;23.73;11.93;;;;;;;14.16;58.54;97956.44;4451949;32;34201;-75
2022/03/31 05:47:54;;;;;;;20.85;11.48;;;;;;;14.14;58.75;97964.19;4452142;32;33655;-75
2022/03/31 05:50:21;;;;;;;25.70;14.63;;;;;;;14.10;58.91;97963.06;4452012;32;34328;-75
2022/03/31 05:52:49;;;;;;;25.90;13.68;;;;;;;14.18;58.79;97960.59;4460115;32;32524;-75
2022/03/31 05:55:19;;;;;;;25.67;13.23;;;;;;;14.23;58.85;97964.47;4442022;32;31838;-75
2022/03/31 05:57:47;;;;;;;24.73;13.55;;;;;;;14.10;59.25;97961.13;4467451;32;33742;-75
2022/03/31 06:00:18;;;;;;;24.23;12.95;;;;;;;14.13;58.90;97968.88;4468174;32;34391;-75
2022/03/31 06:02:50;;;;;;;21.70;12.90;;;;;;;14.13;58.80;97968.03;4469876;32;34726;-75
2022/03/31 06:05:21;;;;;;;22.87;13.57;;;;;;;14.04;59.26;97962.22;4470326;32;34121;-75
2022/03/31 06:07:52;;;;;;;24.25;13.88;;;;;;;13.97;59.40;97964.41;4469744;32;33651;-75
2022/03/31 06:10:20;;;;;;;33.95;13.32;;;;;;;14.07;59.32;97969.12;4470957;32;34462;-75
2022/03/31 06:12:48;;;;;;;22.85;11.90;;;;;;;14.14;59.24;97959.50;4456845;32;32378;-74
2022/03/31 06:15:17;;;;;;;22.13;12.20;;;;;;;14.14;59.59;97966.94;4469720;32;33358;-75
2022/03/31 06:17:45;;;;;;;19.98;12.10;;;;;;;13.99;60.01;97969.66;4456951;32;32417;-74
2022/03/31 06:20:15;;;;;;;20.40;11.80;;;;;;;13.97;60.47;97969.94;4456993;32;35189;-74
2022/03/31 06:22:43;;;;;;;23.27;11.43;;;;;;;14.08;60.10;97981.81;4469827;32;33231;-74
2022/03/31 06:25:14;;;;;;;21.52;12.98;;;;;;;14.09;60.05;97977.97;4470960;32;33578;-75
2022/03/31 06:27:44;;;;;;;20.40;12.52;;;;;;;14.22;59.71;97982.94;4470766;32;33677;-74
2022/03/31 06:30:12;;;;;;;24.10;11.93;;;;;;;14.16;59.88;97987.63;4469654;32;34288;-74
2022/03/31 06:32:40;;;;;;;25.20;13.62;;;;;;;14.16;60.05;97987.63;4456817;32;32570;-74
2022/03/31 06:35:11;;;;;;;22.30;12.37;;;;;;;14.08;60.82;97995.63;4456965;32;33130;-75
2022/03/31 06:37:39;;;;;;;26.52;13.90;;;;;;;14.14;60.76;97991.75;4470696;32;33752;-75
2022/03/31 06:40:09;;;;;;;25.10;14.57;;;;;;;14.13;60.68;97992.88;4456834;32;33029;-74
2022/03/31 06:42:46;;;;;;;27.33;14.48;;;;;;;14.27;60.40;97995.91;4456860;32;32367;-75
2022/03/31 06:45:18;;;;;;;25.75;15.10;;;;;;;14.26;60.64;97997.84;4469566;32;33289;-75
2022/03/31 06:47:55;;;;;;;36.97;19.15;;;;;;;14.27;60.96;98007.78;4469678;32;33663;-75
2022/03/31 06:50:29;;;;;;;33.53;19.23;;;;;;;14.08;61.21;98010.22;4469452;32;35141;-75
2022/03/31 06:52:59;;;;;;;45.78;29.00;;;;;;;13.96;61.66;98006.06;4469431;32;33822;-75
2022/03/31 06:55:31;;;;;;;31.52;20.58;;;;;;;14.13;61.19;98009.41;4470718;32;33279;-75
2022/03/31 06:57:59;;;;;;;31.67;17.40;;;;;;;14.20;61.28;98012.75;4456629;32;33905;-75
2022/03/31 07:00:29;;;;;;;29.23;17.85;;;;;;;14.14;61.79;98009.16;4456539;32;32808;-75
2022/03/31 07:02:59;;;;;;;29.17;16.60;;;;;;;14.03;62.16;98007.47;4470559;32;34597;-75
2022/03/31 07:05:30;;;;;;;33.40;19.27;;;;;;;14.13;61.84;98004.72;4469383;32;34072;-75
2022/03/31 07:07:58;;;;;;;24.20;15.10;;;;;;;14.24;61.85;98007.50;4469432;32;31998;-75
2022/03/31 07:10:26;;;;;;;27.27;14.82;;;;;;;14.08;62.85;97998.38;4469442;32;33209;-75
2022/03/31 07:12:55;;;;;;;29.37;15.38;;;;;;;14.12;62.74;97999.47;4469322;32;34620;-75
2022/03/31 07:15:29;;;;;;;30.95;15.05;;;;;;;14.26;62.13;97995.09;4469311;32;33263;-75
2022/03/31 07:17:57;;;;;;;26.37;14.25;;;;;;;14.25;62.22;97992.59;4456736;32;32986;-75
2022/03/31 07:20:25;;;;;;;25.67;14.90;;;;;;;14.15;62.38;97988.72;4470424;32;35317;-74
2022/03/31 07:22:53;;;;;;;38.88;20.92;;;;;;;14.11;62.38;97986.78;4469080;32;33835;-75
2022/03/31 07:25:23;;;;;;;29.65;16.60;;;;;;;14.11;62.49;97987.63;4470434;32;33016;-75
2022/03/31 07:27:52;;;;;;;34.97;18.83;;;;;;;13.92;63.71;97989.22;4469362;32;33612;-75
2022/03/31 07:30:23;;;;;;;30.15;15.85;;;;;;;14.15;63.24;97991.50;4456394;32;34263;-75
2022/03/31 07:32:52;;;;;;;30.98;16.02;;;;;;;14.13;63.16;97987.34;4469270;32;34742;-75
2022/03/31 07:35:25;;;;;;;28.40;15.02;;;;;;;14.05;63.59;97982.38;4469359;32;33986;-75
2022/03/31 07:38:03;;;;;;;27.02;14.35;;;;;;;13.96;63.42;97984.00;4469182;32;33704;-75
2022/03/31 07:40:32;;;;;;;26.23;14.48;;;;;;;13.92;63.25;97989.22;4469265;32;34331;-75
2022/03/31 07:43:02;;;;;;;26.75;14.15;;;;;;;13.85;62.96;97994.16;4470267;32;34889;-74
2022/03/31 07:45:36;;;;;;;29.00;15.63;;;;;;;13.72;63.24;97991.91;4469068;32;33232;-75
2022/03/31 07:48:05;;;;;;;28.30;15.90;;;;;;;13.81;62.99;97980.09;4469280;32;34601;-75
2022/03/31 07:50:34;;;;;;;23.58;14.48;;;;;;;13.94;62.57;97980.69;4469448;32;34582;-74
2022/03/31 07:53:04;;;;;;;30.55;14.77;;;;;;;13.53;64.56;97980.59;4468943;32;33996;-74
2022/03/31 07:55:33;;;;;;;23.95;14.30;;;;;;;13.79;63.51;97981.47;4469153;32;32008;-74
2022/03/31 07:58:00;;;;;;;24.23;14.98;;;;;;;13.95;63.27;97982.34;4468856;32;33302;-74
2022/03/31 08:00:28;;;;;;;27.42;15.38;;;;;;;13.83;64.17;97985.34;4469108;32;34474;-74
2022/03/31 08:02:59;;;;;;;25.12;15.95;;;;;;;14.00;63.72;97979.59;4469379;32;34312;-74
2022/03/31 08:05:30;;;;;;;28.17;15.18;;;;;;;13.97;64.18;97986.47;4469170;32;33356;-74
2022/03/31 08:07:58;;;;;;;27.95;15.80;;;;;;;13.77;64.67;97989.19;4469275;32;33906;-74
2022/03/31 08:10:26;;;;;;;28.38;16.80;;;;;;;13.80;64.66;97985.88;4468973;32;34274;-74
2022/03/31 08:12:54;;;;;;;26.50;16.20;;;;;;;13.66;66.17;97988.31;4468896;32;33632;-74
2022/03/31 08:15:25;;;;;;;28.65;16.98;;;;;;;13.53;66.86;97986.09;4468808;32;34042;-74
2022/03/31 08:17:53;;;;;;;34.80;19.87;;;;;;;13.70;66.41;97970.12;4470187;32;34560;-74
2022/03/31 08:20:23;;;;;;;33.08;20.37;;;;;;;13.70;67.43;97975.66;4469871;32;34355;-74
2022/03/31 08:22:51;;;;;;;36.53;21.60;;;;;;;13.84;66.40;97963.00;4468167;32;34685;-74
2022/03/31 08:25:19;;;;;;;30.17;18.85;;;;;;;13.66;66.76;97965.44;4470009;32;33211;-74
2022/03/31 08:27:47;;;;;;;30.83;18.40;;;;;;;13.63;66.43;97958.56;4469980;32;33787;-74
2022/03/31 08:30:19;;;;;;;30.45;18.67;;;;;;;13.80;66.06;97945.34;4468876;32;35167;-74
2022/03/31 08:32:47;;;;;;;29.83;18.80;;;;;;;14.00;65.34;97932.72;4468816;32;33977;-74
2022/03/31 08:35:18;;;;;;;31.60;21.67;;;;;;;13.99;65.73;97939.31;4468904;32;33977;-74
2022/03/31 08:37:46;;;;;;;32.65;20.65;;;;;;;14.00;65.46;97949.25;4469107;32;34557;-75
2022/03/31 08:40:15;;;;;;;29.40;19.77;;;;;;;13.65;66.02;97936.25;4468653;32;34269;-75
2022/03/31 08:42:49;;;;;;;29.75;18.23;;;;;;;13.78;65.68;97941.22;4468762;32;34653;-75
2022/03/31 08:45:18;;;;;;;32.38;18.10;;;;;;;13.59;66.30;97929.88;4468712;32;34168;-74
2022/03/31 08:47:48;;;;;;;32.67;20.02;;;;;;;13.78;66.32;97932.94;4468574;32;34784;-75
2022/03/31 08:50:21;;;;;;;31.50;18.27;;;;;;;13.38;67.21;97939.19;4468582;32;35302;-75
2022/03/31 08:52:53;;;;;;;27.48;16.83;;;;;;;13.72;66.19;97936.78;4456036;32;32538;-74
2022/03/31 08:55:24;;;;;;;31.83;17.50;;;;;;;13.45;67.11;97932.31;4469621;32;33332;-74
2022/03/31 08:57:54;;;;;;;28.30;17.12;;;;;;;13.29;68.16;97925.09;4469504;32;34397;-74
2022/03/31 09:00:27;;;;;;;26.67;17.65;;;;;;;13.74;66.82;97927.16;4468263;32;34457;-74
2022/03/31 09:02:56;;;;;;;32.10;17.90;;;;;;;13.51;67.41;97922.97;4468156;32;33611;-74
2022/03/31 09:05:24;;;;;;;29.27;15.73;;;;;;;13.57;67.70;97918.31;4469672;32;34083;-75
2022/03/31 09:08:00;;;;;;;36.10;22.13;;;;;;;13.54;68.05;97916.09;4468376;32;33598;-74
2022/03/31 09:10:31;;;;;;;46.15;30.25;;;;;;;13.54;67.75;97910.59;4468363;32;34495;-74
2022/03/31 09:13:02;;;;;;;41.80;29.30;;;;;;;13.03;69.95;97909.50;4469626;32;33826;-74
2022/03/31 09:15:33;;;;;;;27.08;18.55;;;;;;;13.45;69.20;97903.94;4468342;32;34079;-74
2022/03/31 09:18:01;;;;;;;43.87;28.12;;;;;;;13.29;69.36;97910.50;4455716;32;33343;-74
2022/03/31 09:20:39;;;;;;;35.85;21.20;;;;;;;13.20;70.01;97899.16;4469432;32;34492;-74
2022/03/31 09:23:14;;;;;;;34.70;18.70;;;;;;;12.97;70.58;97894.09;4468050;32;34144;-74
2022/03/31 09:25:42;;;;;;;28.95;17.70;;;;;;;12.93;71.05;97881.97;4468037;32;33245;-74
2022/03/31 09:28:21;;;;;;;26.67;16.87;;;;;;;13.15;70.22;97891.69;4468060;32;33557;-74
2022/03/31 09:30:50;;;;;;;24.30;15.10;;;;;;;13.12;70.33;97888.63;4468156;32;34506;-74
2022/03/31 09:33:32;;;;;;;29.08;16.67;;;;;;;13.42;69.39;97887.94;4468022;32;34131;-74
2022/03/31 09:36:12;;;;;;;27.75;16.23;;;;;;;13.14;70.42;97883.69;4469401;32;33028;-74
2022/03/31 09:38:45;;;;;;;27.75;16.23;;;;;;;13.24;69.90;97889.25;4469979;32;33917;-74
2022/03/31 09:41:21;;;;;;;28.52;16.00;;;;;;;12.86;71.55;97883.03;4470192;32;34538;-74
2022/03/31 09:43:51;;;;;;;24.00;16.87;;;;;;;12.88;70.77;97879.19;4470054;32;34026;-74
2022/03/31 09:46:25;;;;;;;28.00;16.10;;;;;;;12.80;71.84;97884.09;4457766;32;32794;-74
2022/03/31 09:49:10;;;;;;;25.10;16.25;;;;;;;13.13;70.73;97876.50;4470003;32;34490;-75
2022/03/31 09:51:38;;;;;;;25.85;15.82;;;;;;;13.06;70.82;97881.44;4470595;32;34534;-74
2022/03/31 09:54:06;;;;;;;29.48;15.50;;;;;;;13.16;70.65;97868.56;4472643;32;34470;-74
2022/03/31 09:56:35;;;;;;;26.87;15.57;;;;;;;13.15;70.38;97864.12;4472568;32;32865;-74
2022/03/31 09:59:07;;;;;;;26.20;15.50;;;;;;;13.16;70.42;97862.25;4459877;32;33819;-74
2022/03/31 10:01:36;;;;;;;25.62;15.00;;;;;;;12.82;71.17;97870.91;4472592;32;34286;-74
2022/03/31 10:04:09;;;;;;;28.08;16.65;;;;;;;12.83;71.76;97868.97;4486732;32;33992;-74
2022/03/31 10:06:41;;;;;;;27.33;16.20;;;;;;;13.03;71.15;97866.28;4459490;32;31846;-74
2022/03/31 10:09:10;;;;;;;30.50;17.80;;;;;;;12.86;71.31;97855.50;4472572;32;34423;-74
2022/03/31 10:11:40;;;;;;;26.45;16.50;;;;;;;12.99;71.39;97865.19;4486696;32;34325;-74
2022/03/31 10:14:27;;;;;;;27.83;15.98;;;;;;;12.84;71.08;97857.69;4459612;32;33891;-74
2022/03/31 10:16:57;;;;;;;29.15;16.17;;;;;;;13.01;70.88;97845.63;4486685;32;33287;-74
2022/03/31 10:19:29;;;;;;;27.67;16.10;;;;;;;12.99;70.95;97848.69;4459367;32;32295;-74
2022/03/31 10:24:41;;;;;;;26.92;17.48;;;;;;;13.19;70.58;97850.69;4486642;32;34727;-74
2022/03/31 10:25:14;;;;;;;30.95;16.42;;;;;;;13.17;70.58;97844.63;4474851;32;34185;-74
2022/03/31 10:27:49;;;;;;;29.17;16.73;;;;;;;13.37;69.79;97849.34;4459973;32;33043;-74
2022/03/31 10:30:22;;;;;;;49.80;28.52;;;;;;;13.29;70.04;97850.72;4473078;32;33768;-74
2022/03/31 10:33:04;;;;;;;34.63;17.35;;;;;;;13.12;70.85;97853.66;4472296;32;34311;-74
2022/03/31 10:35:34;;;;;;;28.00;16.42;;;;;;;13.39;69.97;97853.50;4472470;32;33864;-74
2022/03/31 10:38:14;;;;;;;36.88;23.85;;;;;;;13.40;69.80;97852.41;4472342;32;34159;-74
2022/03/31 10:40:45;;;;;;;246.15;128.95;;;;;;;13.48;69.79;97853.78;4459507;32;33668;-74
2022/03/31 10:43:26;;;;;;;158.37;78.20;;;;;;;13.52;69.76;97844.72;4472463;32;34345;-74
2022/03/31 10:45:54;;;;;;;440.48;217.82;;;;;;;13.59;69.86;97838.09;4472279;32;33848;-74
2022/03/31 10:48:30;;;;;;;427.55;210.30;;;;;;;13.48;70.25;97829.00;4472388;32;34381;-74
2022/03/31 10:51:05;;;;;;;112.43;74.57;;;;;;;13.48;70.49;97813.28;4472357;32;33514;-74
2022/03/31 10:53:40;;;;;;;43.63;27.10;;;;;;;13.64;70.01;97808.63;4472026;32;34488;-74
2022/03/31 10:56:20;;;;;;;31.75;17.98;;;;;;;13.59;70.40;97799.53;4459465;32;32428;-74
2022/03/31 10:58:49;;;;;;;31.85;18.37;;;;;;;13.74;70.25;97799.50;4472571;32;34074;-74
2022/03/31 11:01:17;;;;;;;31.08;18.77;;;;;;;13.60;70.94;97804.75;4472064;32;34049;-74
2022/03/31 11:03:47;;;;;;;29.80;17.77;;;;;;;13.62;71.02;97796.22;4472259;32;34450;-74
2022/03/31 11:06:20;;;;;;;32.10;17.95;;;;;;;13.46;71.62;97798.94;4472310;32;33862;-74
2022/03/31 11:08:49;;;;;;;30.45;18.62;;;;;;;13.15;73.30;97789.75;4486196;32;33750;-74
2022/03/31 11:11:24;;;;;;;26.45;17.27;;;;;;;12.94;73.96;97795.50;4472176;32;33815;-74
2022/03/31 11:13:52;;;;;;;25.98;16.62;;;;;;;13.13;73.35;97785.63;4472261;32;34461;-74
2022/03/31 11:16:37;;;;;;;25.23;16.12;;;;;;;13.38;73.20;97777.44;4459636;32;33809;-74
2022/03/31 11:19:05;;;;;;;28.52;15.95;;;;;;;13.24;73.26;97781.81;4472471;32;33222;-74
2022/03/31 11:21:42;;;;;;;28.08;16.02;;;;;;;13.17;74.62;97773.00;4471994;32;33359;-74
2022/03/31 11:24:10;;;;;;;28.85;16.73;;;;;;;13.43;73.11;97776.63;4486467;32;34432;-74
2022/03/31 11:26:44;;;;;;;25.30;16.40;;;;;;;13.39;72.99;97770.84;4471733;32;34702;-77
2022/03/31 11:29:17;;;;;;;26.80;17.00;;;;;;;13.47;72.73;97769.47;4472344;32;34087;-76
2022/03/31 11:31:53;;;;;;;26.05;15.38;;;;;;;13.09;74.06;97766.06;4446236;32;32373;-76
2022/03/31 11:34:28;;;;;;;23.80;16.48;;;;;;;13.15;73.47;97759.47;4472585;32;34258;-76